Time;durP1;ratioP1;P1;durP2;ratioP2;P2;SDS_P1;SDS_P2;PMS_P1;PMS_P2;Temp;Humidity;BMP_temperature;BMP_pressure;BME280_temperature;BME280_humidity;BME280_pressure;Samples;Min_cycle;Max_cycle;Signal;HPM_P1;HPM_P2
2021/05/18 00:00:43;;;;;;;7.25;4.22;;;;;;;12.58;83.71;100157.00;5034348;28;20039;-81
2021/05/18 00:03:09;;;;;;;13.20;4.78;;;;;;;12.48;84.40;100159.56;5034951;28;20372;-81
2021/05/18 00:05:37;;;;;;;9.90;4.43;;;;;;;12.48;84.42;100157.75;5029211;28;20036;-80
2021/05/18 00:08:06;;;;;;;7.93;4.70;;;;;;;12.45;83.63;100165.06;5032502;28;20029;-80
2021/05/18 00:13:22;;;;;;;9.35;4.38;;;;;;;12.38;82.61;100166.50;5033449;28;20036;-80
2021/05/18 00:15:50;;;;;;;7.95;4.07;;;;;;;12.31;83.40;100163.53;5019641;28;20175;-80
2021/05/18 00:18:16;;;;;;;10.05;4.40;;;;;;;12.22;82.11;100165.09;5014882;28;20026;-80
2021/05/18 00:20:42;;;;;;;8.00;4.55;;;;;;;12.14;83.34;100164.84;5038245;28;20025;-80
2021/05/18 00:23:10;;;;;;;12.55;4.85;;;;;;;12.02;83.65;100168.44;5022623;28;20092;-80
2021/05/18 00:25:36;;;;;;;7.97;5.05;;;;;;;11.96;83.76;100167.13;5034238;28;20025;-80
2021/05/18 00:28:03;;;;;;;13.13;4.80;;;;;;;11.92;83.73;100165.69;5034320;28;20025;-81
2021/05/18 00:30:28;;;;;;;8.18;5.32;;;;;;;11.90;84.07;100176.31;5034376;28;20421;-80
2021/05/18 13:53:41;;;;;;;9.82;0.93;;;;;;;16.81;88.42;100334.13;5065692;28;21009;-77
2021/05/18 13:56:07;;;;;;;3.42;0.50;;;;;;;17.41;85.09;100329.19;5035191;28;20034;-78
2021/05/18 13:58:32;;;;;;;3.40;0.77;;;;;;;17.37;86.99;100332.31;5040661;28;20021;-78
2021/05/18 14:00:58;;;;;;;14.52;1.55;;;;;;;17.52;80.54;100322.84;5036920;28;20025;-78
2021/05/18 14:03:23;;;;;;;6.85;0.60;;;;;;;17.22;80.26;100313.44;5037733;28;20026;-78
2021/05/18 14:05:48;;;;;;;3.13;0.50;;;;;;;17.46;83.07;100323.47;5036465;28;20042;-78
2021/05/18 14:08:24;;;;;;;2.55;0.57;;;;;;;17.60;81.85;100322.91;5034339;28;20025;-78
2021/05/18 14:10:54;;;;;;;3.17;0.60;;;;;;;17.74;81.44;100318.91;5035133;28;20056;-78
2021/05/18 14:13:21;;;;;;;22.77;1.30;;;;;;;18.15;77.64;100313.94;5036127;28;20483;-78
2021/05/18 14:15:46;;;;;;;2.28;0.60;;;;;;;18.44;74.92;100302.13;5035894;28;20117;-79
2021/05/18 14:18:13;;;;;;;1.85;0.32;;;;;;;19.21;72.49;100305.66;5039309;28;20112;-78
2021/05/18 14:20:39;;;;;;;2.05;0.65;;;;;;;18.82;73.82;100305.34;5034383;28;20091;-78
2021/05/18 14:23:05;;;;;;;3.97;0.73;;;;;;;17.95;77.09;100310.63;5038996;28;20032;-79
2021/05/18 14:25:31;;;;;;;5.40;0.60;;;;;;;18.20;74.98;100301.00;5033879;28;20030;-79
2021/05/18 14:27:57;;;;;;;6.07;0.60;;;;;;;18.22;75.68;100304.34;5030966;28;20030;-79
2021/05/18 14:30:22;;;;;;;5.97;0.60;;;;;;;18.06;74.14;100298.09;5032027;28;20124;-79
2021/05/18 14:32:48;;;;;;;10.77;0.98;;;;;;;18.04;72.01;100296.41;5035403;28;20446;-79
2021/05/18 14:35:14;;;;;;;4.07;0.70;;;;;;;18.21;77.79;100292.06;5035869;28;20030;-79
2021/05/18 14:37:47;;;;;;;1.95;0.38;;;;;;;17.14;77.33;100298.25;5037234;28;20033;-79
2021/05/18 14:45:16;;;;;;;1.63;0.52;;;;;;;17.74;76.24;100289.69;5036746;28;20021;-79
2021/05/18 14:55:50;;;;;;;4.13;0.55;;;;;;;17.20;81.72;100296.78;5031669;28;20176;-79
2021/05/18 14:58:16;;;;;;;6.35;0.68;;;;;;;17.40;80.79;100287.72;5035051;28;20041;-79
2021/05/18 15:00:41;;;;;;;4.03;0.47;;;;;;;17.34;81.98;100293.66;5032500;28;20061;-78
2021/05/18 15:03:07;;;;;;;2.38;0.30;;;;;;;17.70;71.91;100293.63;5033293;28;20088;-78
2021/05/18 15:05:32;;;;;;;2.22;0.60;;;;;;;17.38;72.84;100289.72;5020915;28;20388;-78
2021/05/18 15:07:59;;;;;;;3.38;0.75;;;;;;;17.40;70.45;100294.88;5024857;28;20037;-78
2021/05/18 15:10:24;;;;;;;3.50;0.45;;;;;;;17.29;72.30;100290.59;5025101;28;20411;-79
2021/05/18 15:12:50;;;;;;;5.50;0.70;;;;;;;17.24;70.96;100293.72;5019233;28;20080;-79
2021/05/18 15:15:15;;;;;;;3.15;0.50;;;;;;;17.60;68.13;100285.75;5033000;28;20498;-79
2021/05/18 15:17:41;;;;;;;4.10;0.73;;;;;;;17.41;68.97;100289.38;5018549;28;20468;-79
2021/05/18 15:20:07;;;;;;;4.18;1.10;;;;;;;17.21;70.78;100296.66;5018725;28;20025;-79
2021/05/18 15:22:32;;;;;;;3.10;0.60;;;;;;;17.12;68.11;100288.75;5021867;28;20042;-78
2021/05/18 15:24:58;;;;;;;2.22;0.82;;;;;;;17.40;69.14;100287.72;5022786;28;20454;-78
2021/05/18 15:27:27;;;;;;;4.55;0.60;;;;;;;17.05;66.38;100289.34;5015045;28;20517;-78
2021/05/18 15:29:53;;;;;;;1.90;0.52;;;;;;;17.53;66.18;100289.16;5015218;28;20034;-78
2021/05/18 15:32:19;;;;;;;6.95;1.00;;;;;;;17.33;66.32;100294.63;5019127;28;20037;-78
2021/05/18 15:34:44;;;;;;;5.45;0.90;;;;;;;17.37;65.81;100293.34;5023119;28;20026;-78
2021/05/18 15:37:10;;;;;;;2.63;0.52;;;;;;;17.24;68.29;100292.88;5018618;28;20029;-78
2021/05/18 15:39:36;;;;;;;5.30;1.02;;;;;;;17.33;68.18;100294.63;5024858;28;20048;-78
2021/05/18 15:42:02;;;;;;;6.32;0.90;;;;;;;17.18;65.54;100289.00;5020537;28;20029;-78
2021/05/18 15:44:27;;;;;;;8.07;1.38;;;;;;;17.33;66.38;100297.28;5019238;28;20030;-78
2021/05/18 15:46:53;;;;;;;4.72;1.00;;;;;;;16.72;64.52;100303.19;5022742;28;20368;-78
2021/05/18 15:49:18;;;;;;;5.03;0.77;;;;;;;17.13;64.99;100290.44;5021624;28;20027;-78
2021/05/18 15:51:43;;;;;;;7.25;0.85;;;;;;;17.27;66.46;100302.38;5023952;28;20033;-78
2021/05/18 15:54:09;;;;;;;3.30;0.90;;;;;;;17.45;63.72;100301.38;5025508;28;20053;-78
2021/05/18 15:56:35;;;;;;;7.40;0.82;;;;;;;17.20;65.06;100304.75;5025028;28;20108;-78
2021/05/18 15:59:00;;;;;;;6.97;1.00;;;;;;;16.62;65.40;100314.66;5012933;28;20033;-78
2021/05/18 16:01:26;;;;;;;7.13;0.80;;;;;;;16.94;65.69;100312.59;5022546;28;20104;-78
2021/05/18 16:03:51;;;;;;;6.25;0.60;;;;;;;17.17;64.90;100310.38;5033438;28;20064;-78
2021/05/18 16:06:16;;;;;;;4.22;0.63;;;;;;;17.00;67.17;100318.16;5026189;28;20018;-78
2021/05/18 16:11:09;;;;;;;4.47;1.20;;;;;;;17.24;64.72;100308.81;5019136;28;20089;-79
2021/05/18 16:13:38;;;;;;;10.32;1.52;;;;;;;17.09;63.72;100311.13;5024400;28;20544;-78
2021/05/18 16:16:12;;;;;;;4.90;0.73;;;;;;;17.53;62.93;100305.91;5027085;28;20021;-78
2021/05/18 16:18:39;;;;;;;4.75;0.68;;;;;;;17.24;64.67;100319.44;5022081;28;20033;-79
2021/05/18 16:21:09;;;;;;;3.90;0.82;;;;;;;17.20;66.47;100316.22;5022518;28;20021;-78
2021/05/18 16:23:37;;;;;;;11.23;1.17;;;;;;;17.41;67.11;100310.63;5020760;28;20034;-78
2021/05/18 16:26:04;;;;;;;6.63;1.08;;;;;;;17.33;65.09;100321.16;5021250;28;20033;-78
2021/05/18 16:28:29;;;;;;;8.73;1.13;;;;;;;17.02;65.60;100326.81;5020603;28;20125;-79
2021/05/18 16:30:54;;;;;;;6.03;0.85;;;;;;;17.15;67.13;100313.19;5022639;28;20108;-79
2021/05/18 16:33:21;;;;;;;5.93;1.20;;;;;;;16.98;65.59;100313.97;5022790;28;20451;-79
2021/05/18 16:35:47;;;;;;;7.78;1.00;;;;;;;16.98;65.23;100314.81;5021972;28;20038;-78
2021/05/18 16:38:12;;;;;;;7.57;1.38;;;;;;;16.87;64.88;100315.00;5023427;28;20155;-78
2021/05/18 16:40:37;;;;;;;9.80;1.58;;;;;;;16.94;62.75;100325.88;5020698;28;20092;-85
2021/05/18 16:43:03;;;;;;;5.25;1.05;;;;;;;16.68;63.14;100323.03;5025195;28;20025;-78
2021/05/18 16:45:29;;;;;;;11.38;1.33;;;;;;;16.58;63.34;100320.41;5022178;28;20117;-78
2021/05/18 16:47:54;;;;;;;7.20;1.25;;;;;;;16.54;63.94;100316.38;5025200;28;20156;-78
2021/05/18 16:50:20;;;;;;;8.68;1.10;;;;;;;16.54;62.40;100317.22;5013104;28;20555;-78
2021/05/18 16:52:46;;;;;;;4.22;0.80;;;;;;;16.40;61.79;100330.94;5019116;28;20036;-77
2021/05/18 16:55:12;;;;;;;6.35;1.25;;;;;;;16.46;62.28;100317.94;5028611;28;20040;-78
2021/05/18 16:57:39;;;;;;;7.43;1.00;;;;;;;15.99;62.67;100332.94;5016043;28;20022;-78
2021/05/18 17:00:07;;;;;;;10.85;2.05;;;;;;;16.35;63.51;100333.16;5023319;28;20465;-78
2021/05/18 17:02:33;;;;;;;7.03;1.02;;;;;;;16.35;64.14;100325.22;5012602;28;20038;-78
2021/05/18 17:04:59;;;;;;;5.70;0.90;;;;;;;16.21;62.58;100334.44;5031049;28;20025;-79
2021/05/18 17:07:25;;;;;;;13.02;1.95;;;;;;;16.01;64.50;100336.28;5021499;28;20434;-77
2021/05/18 17:09:51;;;;;;;5.72;1.35;;;;;;;16.04;63.66;100331.56;5012747;28;20525;-77
2021/05/18 17:12:19;;;;;;;7.20;0.93;;;;;;;16.12;64.75;100333.50;5019137;28;20029;-86
2021/05/18 17:14:45;;;;;;;5.30;1.38;;;;;;;16.12;65.74;100332.69;5015590;28;20022;-84
2021/05/18 17:17:13;;;;;;;7.10;1.15;;;;;;;16.46;64.70;100339.13;5013792;28;20037;-78
2021/05/18 17:19:39;;;;;;;5.40;1.00;;;;;;;16.01;66.28;100339.78;5012993;28;20034;-83
2021/05/18 17:22:04;;;;;;;6.32;1.15;;;;;;;15.97;67.60;100350.78;5011914;28;20018;-78
2021/05/18 17:24:29;;;;;;;9.48;1.23;;;;;;;16.04;68.01;100346.63;5018546;28;20091;-78
2021/05/18 17:26:55;;;;;;;12.93;1.63;;;;;;;15.97;70.17;100351.63;5017441;28;20128;-79
2021/05/18 17:29:23;;;;;;;7.95;1.30;;;;;;;16.12;69.48;100351.22;5013273;28;20080;-78
2021/05/18 17:31:48;;;;;;;9.35;1.50;;;;;;;16.08;68.17;100355.13;5023295;28;20372;-78
2021/05/18 17:34:13;;;;;;;5.97;1.15;;;;;;;16.09;68.55;100344.38;5028067;28;20075;-78
2021/05/18 17:36:39;;;;;;;8.43;1.77;;;;;;;15.99;69.84;100352.31;5011984;28;20042;-80
2021/05/18 17:39:05;;;;;;;15.68;2.00;;;;;;;16.11;70.92;100354.81;5012192;28;20037;-78
2021/05/18 17:41:30;;;;;;;6.03;1.23;;;;;;;16.27;67.49;100363.00;5012159;28;20022;-78
2021/05/18 17:43:56;;;;;;;6.78;1.17;;;;;;;15.76;68.41;100353.59;5024126;28;20033;-78
2021/05/18 17:46:25;;;;;;;7.60;1.08;;;;;;;15.73;69.25;100354.69;5021743;28;20712;-78
2021/05/18 17:48:51;;;;;;;9.32;1.42;;;;;;;15.52;69.34;100354.81;5031049;28;20037;-78
2021/05/18 17:51:16;;;;;;;9.73;1.25;;;;;;;15.80;70.59;100350.53;5011945;28;20025;-77
2021/05/18 17:53:42;;;;;;;7.57;1.13;;;;;;;15.81;69.72;100354.84;5044813;28;20179;-79
2021/05/18 17:56:08;;;;;;;8.38;1.45;;;;;;;15.57;69.51;100359.69;5018440;28;20038;-82
2021/05/18 17:58:33;;;;;;;9.38;1.42;;;;;;;15.38;71.23;100361.34;5022699;28;20034;-82
2021/05/18 18:00:58;;;;;;;8.65;1.98;;;;;;;15.42;72.55;100357.44;5015845;28;20030;-82
2021/05/18 18:03:24;;;;;;;7.57;1.20;;;;;;;15.42;72.70;100364.53;5017121;28;20028;-83
2021/05/18 18:05:52;;;;;;;10.02;1.58;;;;;;;15.40;73.48;100363.81;5010784;28;20111;-83
2021/05/18 18:08:17;;;;;;;5.93;1.08;;;;;;;14.88;75.04;100356.84;5011057;28;20022;-82
2021/05/18 18:10:49;;;;;;;15.27;3.50;;;;;;;15.24;72.31;100364.34;5012940;28;20040;-83
2021/05/18 18:13:16;;;;;;;9.80;1.58;;;;;;;15.18;72.62;100363.06;5025023;28;20033;-83
2021/05/18 18:15:41;;;;;;;11.02;1.05;;;;;;;15.15;72.20;100370.47;5025911;28;20455;-80
2021/05/18 18:18:06;;;;;;;11.00;1.77;;;;;;;14.73;73.89;100365.28;5028119;28;20049;-85
2021/05/18 18:20:32;;;;;;;5.30;1.25;;;;;;;14.78;72.89;100376.31;5022444;28;20455;-79
2021/05/18 18:22:57;;;;;;;8.68;1.30;;;;;;;14.58;75.06;100368.28;5027840;28;20041;-83
2021/05/18 18:25:22;;;;;;;6.13;0.95;;;;;;;14.56;74.28;100375.50;5019337;28;20514;-79
2021/05/18 18:27:49;;;;;;;9.98;1.55;;;;;;;14.28;76.38;100385.72;5025720;28;20036;-79
2021/05/18 18:30:14;;;;;;;10.43;1.65;;;;;;;14.31;77.76;100378.50;5026511;28;20104;-86
2021/05/18 18:32:40;;;;;;;7.78;1.38;;;;;;;14.21;78.95;100379.25;5028357;28;20435;-79
2021/05/18 18:35:06;;;;;;;9.25;1.52;;;;;;;14.18;78.55;100384.81;5018357;28;20052;-86
2021/05/18 18:37:37;;;;;;;8.57;1.60;;;;;;;13.98;81.06;100386.47;5013617;28;20033;-79
2021/05/18 18:40:05;;;;;;;8.07;1.38;;;;;;;14.24;81.35;100391.41;5017757;28;20463;-79
2021/05/18 18:42:30;;;;;;;8.48;1.63;;;;;;;14.25;80.08;100388.59;5034779;28;20364;-79
2021/05/18 18:44:56;;;;;;;10.75;1.92;;;;;;;13.91;82.04;100385.28;5032667;28;20087;-79
2021/05/18 18:47:21;;;;;;;7.38;1.50;;;;;;;14.19;81.27;100398.84;5015264;28;20435;-79
2021/05/18 18:49:50;;;;;;;13.45;1.75;;;;;;;14.20;82.24;100396.09;5027966;28;20033;-79
2021/05/18 18:52:35;;;;;;;6.57;1.30;;;;;;;14.03;83.67;100394.00;5034760;28;20036;-79
2021/05/18 18:55:01;;;;;;;9.38;1.50;;;;;;;13.84;84.10;100400.81;5020253;28;20085;-80
2021/05/18 18:57:27;;;;;;;7.35;1.58;;;;;;;13.88;84.51;100396.97;5015795;28;20105;-79
2021/05/18 18:59:53;;;;;;;7.00;1.58;;;;;;;13.84;83.99;100390.25;5034854;28;20032;-80
2021/05/18 19:02:18;;;;;;;10.93;1.65;;;;;;;14.12;83.27;100402.97;5034952;28;20029;-79
2021/05/18 19:04:44;;;;;;;9.65;2.53;;;;;;;14.16;83.30;100407.00;5015559;28;20037;-79
2021/05/18 19:07:27;;;;;;;10.25;1.70;;;;;;;13.94;84.44;100397.41;5015005;28;20037;-79
2021/05/18 19:10:08;;;;;;;15.15;1.70;;;;;;;14.04;84.87;100396.53;5034352;28;20064;-79
2021/05/18 19:12:45;;;;;;;9.40;1.85;;;;;;;14.06;85.01;100406.97;5034220;28;20029;-79
2021/05/18 19:15:11;;;;;;;9.32;1.58;;;;;;;14.05;84.37;100413.19;5014829;28;20022;-79
2021/05/18 19:17:38;;;;;;;11.95;1.90;;;;;;;14.11;84.62;100412.69;5014864;28;20076;-79
2021/05/18 19:20:05;;;;;;;10.55;2.30;;;;;;;13.99;87.40;100416.34;5014820;28;20022;-79
2021/05/18 19:22:31;;;;;;;11.90;1.60;;;;;;;14.00;87.23;100412.72;5015064;28;20022;-79
2021/05/18 19:24:56;;;;;;;11.05;1.95;;;;;;;13.86;87.88;100430.56;5015839;28;20471;-79
2021/05/18 19:27:22;;;;;;;12.60;1.98;;;;;;;13.95;86.58;100430.75;5014803;28;20141;-79
2021/05/18 19:29:47;;;;;;;8.35;1.40;;;;;;;13.76;88.89;100428.78;5031692;28;20029;-79
2021/05/18 19:32:13;;;;;;;6.95;1.20;;;;;;;13.52;91.26;100442.97;5034729;28;20025;-79
2021/05/18 19:34:42;;;;;;;7.15;1.98;;;;;;;13.55;92.36;100437.47;5034110;28;20375;-79
2021/05/18 19:47:53;;;;;;;5.65;1.50;;;;;;;13.04;93.67;100459.88;5034002;28;20386;-79
2021/05/18 19:50:21;;;;;;;6.78;1.48;;;;;;;12.90;95.76;100455.66;5014857;28;20542;-79
2021/05/18 19:52:51;;;;;;;8.25;1.00;;;;;;;13.00;95.12;100461.06;5040062;28;20044;-79
2021/05/18 19:55:26;;;;;;;4.53;1.08;;;;;;;12.98;96.47;100449.81;5015955;28;20030;-79
2021/05/18 20:19:34;;;;;;;4.22;0.68;;;;;;;12.75;99.24;100464.72;5036702;28;20048;-79
2021/05/18 20:24:31;;;;;;;6.47;0.90;;;;;;;12.62;98.70;100464.84;5014416;28;20026;-79
2021/05/18 20:26:57;;;;;;;7.03;1.70;;;;;;;12.60;98.90;100466.75;5022308;28;20036;-79
2021/05/18 20:29:22;;;;;;;4.63;1.15;;;;;;;12.66;99.06;100471.56;5031241;28;20042;-79
2021/05/18 20:31:47;;;;;;;5.40;1.63;;;;;;;12.57;100.00;100469.59;5028003;28;20112;-80
2021/05/18 20:39:43;;;;;;;5.80;1.15;;;;;;;12.45;100.00;100478.44;5033398;28;20091;-79
2021/05/18 20:42:11;;;;;;;4.95;1.20;;;;;;;12.51;100.00;100483.22;5019108;28;20480;-80
2021/05/18 20:44:36;;;;;;;6.72;1.20;;;;;;;12.42;100.00;100478.63;5013271;28;20391;-79
2021/05/18 20:47:02;;;;;;;5.93;1.42;;;;;;;12.37;100.00;100479.00;5025026;28;20025;-79
2021/05/18 20:49:27;;;;;;;8.10;1.60;;;;;;;12.36;100.00;100468.56;5020458;28;20460;-79
2021/05/18 20:51:57;;;;;;;5.32;1.33;;;;;;;12.41;100.00;100476.97;5026402;28;20036;-79
2021/05/18 20:54:22;;;;;;;9.40;1.65;;;;;;;12.40;100.00;100481.41;5032586;28;20381;-79
2021/05/18 20:56:48;;;;;;;8.20;1.15;;;;;;;12.43;100.00;100478.53;5026430;28;20474;-79
2021/05/18 20:59:13;;;;;;;3.33;1.00;;;;;;;12.44;100.00;100482.00;5014814;28;20029;-79
2021/05/18 21:01:39;;;;;;;5.03;1.20;;;;;;;12.52;100.00;100476.16;5019895;28;20036;-80
2021/05/18 21:04:04;;;;;;;4.75;1.20;;;;;;;12.52;100.00;100479.66;5015236;28;20025;-80
2021/05/18 21:06:34;;;;;;;4.38;1.10;;;;;;;12.40;100.00;100486.69;5025011;28;20060;-80
2021/05/18 21:09:50;;;;;;;4.13;0.90;;;;;;;12.50;100.00;100485.03;5013739;28;20029;-79
2021/05/18 21:16:46;;;;;;;5.25;1.20;;;;;;;12.44;100.00;100489.91;5016209;28;20034;-79
2021/05/18 21:19:11;;;;;;;4.20;1.13;;;;;;;12.43;100.00;100485.59;5026608;28;20064;-80
2021/05/18 21:21:37;;;;;;;3.13;0.82;;;;;;;12.40;100.00;100483.19;5023037;28;20070;-79
2021/05/18 21:24:04;;;;;;;4.18;1.42;;;;;;;12.12;100.00;100489.66;5012022;28;20030;-79
2021/05/18 21:26:29;;;;;;;4.28;1.33;;;;;;;12.24;100.00;100491.38;5019671;28;20029;-80
2021/05/18 21:28:54;;;;;;;3.25;0.98;;;;;;;12.24;100.00;100489.59;5027096;28;20096;-80
2021/05/18 21:31:20;;;;;;;5.65;1.23;;;;;;;12.08;100.00;100484.63;5020307;28;20021;-80
2021/05/18 21:33:46;;;;;;;4.45;1.00;;;;;;;12.18;100.00;100487.41;5031823;28;20120;-80
2021/05/18 21:36:12;;;;;;;5.25;1.10;;;;;;;12.20;100.00;100482.03;5024558;28;20096;-80
2021/05/18 21:38:37;;;;;;;2.10;1.02;;;;;;;12.22;100.00;100478.34;5013214;28;20528;-80
2021/05/18 21:41:05;;;;;;;4.00;1.00;;;;;;;12.18;100.00;100486.56;5017502;28;20458;-80
2021/05/18 21:43:33;;;;;;;6.30;1.02;;;;;;;12.19;100.00;100483.00;5023292;28;20040;-80
2021/05/18 21:45:58;;;;;;;3.45;0.80;;;;;;;12.13;100.00;100489.53;5031849;28;20057;-80
2021/05/18 21:48:23;;;;;;;2.88;0.80;;;;;;;12.15;100.00;100485.00;5022794;28;20029;-80
2021/05/18 21:50:49;;;;;;;3.97;1.02;;;;;;;12.11;100.00;100480.94;5031766;28;20021;-80
2021/05/18 21:53:14;;;;;;;4.35;0.93;;;;;;;12.10;100.00;100495.03;5031554;28;20120;-80
2021/05/18 21:55:40;;;;;;;3.60;1.00;;;;;;;12.16;100.00;100491.09;5013404;28;20084;-80
2021/05/18 21:58:07;;;;;;;5.72;1.17;;;;;;;12.08;100.00;100483.78;5017588;28;20056;-80
2021/05/18 22:00:43;;;;;;;4.97;1.10;;;;;;;12.16;100.00;100489.31;5021616;28;20033;-86
2021/05/18 22:03:11;;;;;;;2.70;1.00;;;;;;;12.19;100.00;100494.34;5019012;28;20117;-80
2021/05/18 22:05:44;;;;;;;6.72;0.88;;;;;;;12.12;100.00;100493.13;5012868;28;20030;-81
2021/05/18 22:08:17;;;;;;;8.73;1.02;;;;;;;12.17;100.00;100480.47;5012789;28;20101;-80
2021/05/18 22:13:52;;;;;;;2.10;0.80;;;;;;;12.17;100.00;100469.09;5013313;28;20045;-79
2021/05/18 22:27:13;;;;;;;4.32;0.80;;;;;;;12.29;100.00;100484.81;5014822;28;20522;-80
2021/05/18 22:29:39;;;;;;;3.53;0.80;;;;;;;12.38;100.00;100479.81;5021509;28;20029;-80
2021/05/18 22:32:05;;;;;;;1.90;0.40;;;;;;;12.47;100.00;100481.78;5034758;28;20071;-79
2021/05/18 22:34:31;;;;;;;2.78;1.05;;;;;;;12.35;100.00;100483.53;5030483;28;20084;-79
2021/05/18 22:36:56;;;;;;;1.02;0.70;;;;;;;12.42;100.00;100478.63;5015158;28;20380;-80
2021/05/18 22:39:23;;;;;;;2.20;0.73;;;;;;;12.30;100.00;100478.63;5017954;28;20084;-80
2021/05/18 22:41:49;;;;;;;1.73;0.50;;;;;;;12.12;100.00;100484.38;5035052;28;20010;-80
2021/05/18 22:44:15;;;;;;;4.05;0.73;;;;;;;12.17;100.00;100479.63;5033433;28;20065;-80
2021/05/18 22:46:40;;;;;;;2.47;0.57;;;;;;;12.08;100.00;100475.88;5034569;28;20068;-79
2021/05/18 22:49:06;;;;;;;4.70;0.95;;;;;;;12.02;100.00;100484.22;5035119;28;20021;-79
2021/05/18 22:51:32;;;;;;;0.95;0.63;;;;;;;12.02;100.00;100471.06;5015372;28;20031;-79
2021/05/18 22:53:57;;;;;;;1.75;0.70;;;;;;;12.05;100.00;100476.13;5015131;28;20029;-79
2021/05/18 22:56:23;;;;;;;3.95;0.82;;;;;;;12.02;100.00;100477.16;5014041;28;20059;-79
2021/05/18 22:58:48;;;;;;;4.20;0.95;;;;;;;11.88;100.00;100466.78;5015006;28;20494;-79
2021/05/18 23:01:14;;;;;;;3.35;1.00;;;;;;;11.82;100.00;100465.41;5029502;28;20034;-79
2021/05/18 23:03:39;;;;;;;3.58;1.20;;;;;;;11.79;100.00;100470.91;5034704;28;20411;-79
2021/05/18 23:06:05;;;;;;;3.38;1.20;;;;;;;11.85;100.00;100464.38;5020259;28;20399;-79
2021/05/18 23:08:30;;;;;;;2.67;1.00;;;;;;;11.82;100.00;100477.75;5041428;28;20383;-79
2021/05/18 23:10:55;;;;;;;1.30;1.00;;;;;;;11.82;100.00;100469.84;5033987;28;20030;-79
2021/05/18 23:13:21;;;;;;;5.18;1.38;;;;;;;11.87;100.00;100468.56;5023433;28;20454;-79
2021/05/18 23:15:49;;;;;;;2.58;1.05;;;;;;;11.85;100.00;100474.91;5030215;28;20080;-79
2021/05/18 23:18:14;;;;;;;5.18;1.60;;;;;;;12.06;100.00;100469.88;5033873;28;20033;-79
2021/05/18 23:20:40;;;;;;;2.67;1.30;;;;;;;12.13;100.00;100475.56;5034323;28;20038;-79
2021/05/18 23:23:05;;;;;;;1.75;0.93;;;;;;;12.06;100.00;100467.25;5026514;28;20034;-79
2021/05/18 23:25:31;;;;;;;4.65;1.13;;;;;;;12.02;100.00;100468.44;5013964;28;20022;-79
2021/05/18 23:27:56;;;;;;;1.85;1.15;;;;;;;12.07;100.00;100475.03;5020120;28;20034;-78
2021/05/18 23:30:22;;;;;;;2.47;1.55;;;;;;;12.12;100.00;100466.78;5034121;28;20029;-79
2021/05/18 23:32:48;;;;;;;1.60;1.02;;;;;;;12.07;100.00;100463.69;5032315;28;20026;-80
2021/05/18 23:35:15;;;;;;;3.60;1.35;;;;;;;11.74;100.00;100473.03;5033839;28;20041;-80
2021/05/18 23:37:41;;;;;;;4.43;1.38;;;;;;;11.63;100.00;100475.56;5032601;28;20052;-80
2021/05/18 23:40:08;;;;;;;4.40;1.02;;;;;;;11.63;100.00;100475.56;5034151;28;20108;-79
2021/05/18 23:42:35;;;;;;;4.78;1.25;;;;;;;11.63;100.00;100470.31;5032388;28;20026;-78
2021/05/18 23:45:02;;;;;;;2.25;1.73;;;;;;;11.42;100.00;100475.31;5014036;28;20021;-78
2021/05/18 23:47:28;;;;;;;1.58;0.98;;;;;;;11.60;100.00;100470.56;5014247;28;20022;-78
2021/05/18 23:49:53;;;;;;;2.65;1.38;;;;;;;11.70;100.00;100476.81;5033494;28;20104;-78
2021/05/18 23:52:19;;;;;;;2.47;1.00;;;;;;;11.82;100.00;100475.94;5033683;28;20112;-78
2021/05/18 23:54:44;;;;;;;4.65;1.27;;;;;;;11.56;100.00;100482.25;5014289;28;20365;-78
2021/05/18 23:57:09;;;;;;;2.90;1.40;;;;;;;11.72;100.00;100474.94;5014070;28;20022;-78
2021/05/18 23:59:35;;;;;;;2.33;1.35;;;;;;;11.67;100.00;100479.66;5029704;28;20022;-78
